Time;durP1;ratioP1;P1;durP2;ratioP2;P2;SDS_P1;SDS_P2;PMS_P1;PMS_P2;Temp;Humidity;BMP_temperature;BMP_pressure;BME280_temperature;BME280_humidity;BME280_pressure;Samples;Min_cycle;Max_cycle;Signal;HPM_P1;HPM_P2
2021/05/23 00:01:04;;;;;;;;;;;;;;;;;;5047547;28;19959;-67
2021/05/23 00:03:31;;;;;;;;;;;;;;;;;;5054750;28;19931;-67
2021/05/23 00:05:57;;;;;;;;;;;;;;;;;;5050569;28;19925;-66
2021/05/23 00:08:25;;;;;;;;;;;;;;;;;;5049259;28;19935;-67
2021/05/23 00:10:51;;;;;;;;;;;;;;;;;;5048095;28;20388;-67
2021/05/23 00:13:17;;;;;;;;;;;;;;;;;;5047074;28;19968;-67
2021/05/23 00:15:44;;;;;;;;;;;;;;;;;;5048227;28;20359;-68
2021/05/23 00:18:10;;;;;;;;;;;;;;;;;;5047509;28;20362;-68
2021/05/23 00:20:37;;;;;;;;;;;;;;;;;;5053391;28;20300;-68
2021/05/23 00:23:04;;;;;;;;;;;;;;;;;;5052798;28;19925;-67
2021/05/23 00:25:31;;;;;;;;;;;;;;;;;;5051251;28;19937;-68
2021/05/23 00:27:57;;;;;;;;;;;;;;;;;;5049511;28;19924;-68
2021/05/23 00:30:23;;;;;;;;;;;;;;;;;;5050086;28;19924;-68
2021/05/23 00:32:50;;;;;;;;;;;;;;;;;;5052687;28;19931;-68
2021/05/23 00:35:17;;;;;;;;;;;;;;;;;;5050832;28;19924;-69
2021/05/23 00:37:43;;;;;;;;;;;;;;;;;;5045277;28;19925;-68
2021/05/23 00:40:10;;;;;;;;;;;;;;;;;;5051998;28;19924;-68
2021/05/23 00:42:36;;;;;;;;;;;;;;;;;;5051372;28;19929;-68
2021/05/23 00:45:02;;;;;;;;;;;;;;;;;;5052254;28;19925;-68
2021/05/23 00:47:29;;;;;;;;;;;;;;;;;;5052978;28;19925;-69
2021/05/23 00:49:55;;;;;;;;;;;;;;;;;;5052202;28;19925;-67
2021/05/23 00:52:22;;;;;;;;;;;;;;;;;;5049719;28;19955;-68
2021/05/23 00:54:48;;;;;;;;;;;;;;;;;;5052980;28;19933;-68
2021/05/23 00:57:15;;;;;;;;;;;;;;;;;;5050567;28;19978;-67
2021/05/23 00:59:41;;;;;;;;;;;;;;;;;;5050757;28;19929;-68
2021/05/23 01:02:08;;;;;;;;;;;;;;;;;;5050131;28;19932;-68
2021/05/23 01:04:34;;;;;;;;;;;;;;;;;;5049963;28;20632;-69
2021/05/23 01:07:01;;;;;;;;;;;;;;;;;;5050784;28;19929;-69
2021/05/23 01:09:27;;;;;;;;;;;;;;;;;;5050483;28;20503;-69
2021/05/23 01:11:54;;;;;;;;;;;;;;;;;;5049831;28;20403;-69
2021/05/23 01:14:20;;;;;;;;;;;;;;;;;;5051742;28;19933;-67
2021/05/23 01:16:47;;;;;;;;;;;;;;;;;;5050020;28;19924;-68
2021/05/23 01:19:13;;;;;;;;;;;;;;;;;;5051942;28;20019;-68
2021/05/23 01:21:39;;;;;;;;;;;;;;;;;;5050041;28;19977;-69
2021/05/23 01:24:06;;;;;;;;;;;;;;;;;;5051975;28;19931;-69
2021/05/23 01:26:32;;;;;;;;;;;;;;;;;;5051761;28;19925;-68
2021/05/23 01:28:59;;;;;;;;;;;;;;;;;;5051005;28;19986;-68
2021/05/23 01:31:25;;;;;;;;;;;;;;;;;;5051263;28;19925;-68
2021/05/23 01:33:52;;;;;;;;;;;;;;;;;;5049121;28;19969;-68
2021/05/23 01:36:18;;;;;;;;;;;;;;;;;;5051645;28;19933;-69
2021/05/23 01:38:44;;;;;;;;;;;;;;;;;;5049931;28;19970;-68
2021/05/23 01:41:11;;;;;;;;;;;;;;;;;;5050407;28;19965;-69
2021/05/23 01:43:37;;;;;;;;;;;;;;;;;;5051516;28;19935;-68
2021/05/23 01:46:04;;;;;;;;;;;;;;;;;;5049809;28;19925;-68
2021/05/23 01:48:30;;;;;;;;;;;;;;;;;;5050897;28;19982;-68
2021/05/23 01:50:57;;;;;;;;;;;;;;;;;;5050980;28;19925;-69
2021/05/23 01:53:23;;;;;;;;;;;;;;;;;;5047769;28;19925;-68
2021/05/23 01:55:50;;;;;;;;;;;;;;;;;;5049519;28;19925;-69
2021/05/23 01:58:16;;;;;;;;;;;;;;;;;;5050747;28;19925;-68
2021/05/23 02:00:42;;;;;;;;;;;;;;;;;;5049755;28;20011;-67
2021/05/23 02:03:09;;;;;;;;;;;;;;;;;;5055248;28;19924;-68
2021/05/23 02:05:35;;;;;;;;;;;;;;;;;;5050044;28;19932;-68
2021/05/23 02:08:02;;;;;;;;;;;;;;;;;;5046909;28;19925;-69
2021/05/23 02:10:28;;;;;;;;;;;;;;;;;;5050706;28;20399;-69
2021/05/23 02:12:57;;;;;;;;;;;;;;;;;;5045434;28;19939;-68
2021/05/23 02:15:23;;;;;;;;;;;;;;;;;;5051795;28;20335;-69
2021/05/23 02:17:50;;;;;;;;;;;;;;;;;;5048997;28;20285;-69
2021/05/23 02:20:16;;;;;;;;;;;;;;;;;;5050016;28;20117;-69
2021/05/23 02:22:43;;;;;;;;;;;;;;;;;;5049244;28;19931;-68
2021/05/23 02:25:09;;;;;;;;;;;;;;;;;;5050690;28;19978;-68
2021/05/23 02:27:36;;;;;;;;;;;;;;;;;;5050948;28;20306;-69
2021/05/23 02:30:02;;;;;;;;;;;;;;;;;;5050699;28;19932;-67
2021/05/23 02:32:28;;;;;;;;;;;;;;;;;;5049210;28;19925;-68
2021/05/23 02:34:55;;;;;;;;;;;;;;;;;;5050680;28;19925;-67
2021/05/23 02:37:21;;;;;;;;;;;;;;;;;;5049484;28;19967;-69
2021/05/23 02:39:48;;;;;;;;;;;;;;;;;;5050168;28;19925;-68
2021/05/23 02:42:14;;;;;;;;;;;;;;;;;;5049479;28;19979;-67
2021/05/23 02:44:41;;;;;;;;;;;;;;;;;;5050335;28;20393;-68
2021/05/23 02:47:07;;;;;;;;;;;;;;;;;;5049497;28;20008;-69
2021/05/23 02:49:37;;;;;;;;;;;;;;;;;;5048078;28;20568;-68
2021/05/23 02:52:04;;;;;;;;;;;;;;;;;;5048890;28;19931;-68
2021/05/23 02:54:30;;;;;;;;;;;;;;;;;;5049186;28;19925;-68
2021/05/23 02:56:56;;;;;;;;;;;;;;;;;;5049848;28;19994;-69
2021/05/23 02:59:23;;;;;;;;;;;;;;;;;;5045154;28;19936;-67
2021/05/23 03:01:49;;;;;;;;;;;;;;;;;;5048053;28;19932;-67
2021/05/23 03:04:16;;;;;;;;;;;;;;;;;;5052639;28;19939;-67
2021/05/23 03:06:42;;;;;;;;;;;;;;;;;;5049536;28;19929;-68
2021/05/23 03:09:09;;;;;;;;;;;;;;;;;;5049071;28;19932;-68
2021/05/23 03:11:35;;;;;;;;;;;;;;;;;;5047806;28;20016;-69
2021/05/23 03:14:02;;;;;;;;;;;;;;;;;;5050402;28;20369;-68
2021/05/23 03:16:28;;;;;;;;;;;;;;;;;;5047858;28;19929;-68
2021/05/23 03:18:54;;;;;;;;;;;;;;;;;;5049131;28;19925;-68
2021/05/23 03:21:21;;;;;;;;;;;;;;;;;;5046485;28;19965;-68
2021/05/23 03:23:47;;;;;;;;;;;;;;;;;;5049533;28;19925;-69
2021/05/23 03:26:14;;;;;;;;;;;;;;;;;;5047718;28;19925;-69
2021/05/23 03:28:40;;;;;;;;;;;;;;;;;;5048441;28;19933;-68
2021/05/23 03:31:07;;;;;;;;;;;;;;;;;;5047294;28;20419;-67
2021/05/23 03:33:33;;;;;;;;;;;;;;;;;;5049007;28;20164;-66
2021/05/23 03:35:59;;;;;;;;;;;;;;;;;;5044186;28;19979;-67
2021/05/23 03:38:26;;;;;;;;;;;;;;;;;;5048126;28;20304;-67
2021/05/23 03:40:52;;;;;;;;;;;;;;;;;;5049000;28;19925;-67
2021/05/23 03:43:19;;;;;;;;;;;;;;;;;;5048737;28;19925;-68
2021/05/23 03:45:45;;;;;;;;;;;;;;;;;;5047600;28;19924;-65
2021/05/23 03:48:12;;;;;;;;;;;;;;;;;;5049050;28;19985;-65
2021/05/23 03:50:38;;;;;;;;;;;;;;;;;;5048113;28;19932;-67
2021/05/23 03:53:04;;;;;;;;;;;;;;;;;;5048370;28;19940;-67
2021/05/23 03:55:31;;;;;;;;;;;;;;;;;;5047636;28;20349;-67
2021/05/23 03:57:57;;;;;;;;;;;;;;;;;;5047833;28;19944;-67
2021/05/23 04:00:24;;;;;;;;;;;;;;;;;;5045659;28;19932;-67
2021/05/23 04:02:52;;;;;;;;;;;;;;;;;;5048425;28;20342;-65
2021/05/23 04:05:19;;;;;;;;;;;;;;;;;;5046982;28;19925;-65
2021/05/23 04:07:45;;;;;;;;;;;;;;;;;;5047292;28;19925;-68
2021/05/23 04:10:14;;;;;;;;;;;;;;;;;;5047252;28;19925;-67
2021/05/23 04:12:42;;;;;;;;;;;;;;;;;;5047587;28;19936;-68
2021/05/23 04:15:08;;;;;;;;;;;;;;;;;;5047571;28;20562;-67
2021/05/23 04:17:35;;;;;;;;;;;;;;;;;;5046414;28;19933;-66
2021/05/23 04:20:01;;;;;;;;;;;;;;;;;;5046059;28;19925;-66
2021/05/23 04:22:28;;;;;;;;;;;;;;;;;;5048104;28;20008;-66
2021/05/23 04:24:54;;;;;;;;;;;;;;;;;;5048199;28;20346;-66
2021/05/23 04:27:21;;;;;;;;;;;;;;;;;;5047883;28;19948;-67
2021/05/23 04:29:47;;;;;;;;;;;;;;;;;;5048477;28;19953;-69
2021/05/23 04:32:14;;;;;;;;;;;;;;;;;;5047914;28;19928;-67
2021/05/23 04:34:40;;;;;;;;;;;;;;;;;;5048074;28;19935;-67
2021/05/23 04:37:06;;;;;;;;;;;;;;;;;;5048757;28;19924;-66
2021/05/23 04:39:33;;;;;;;;;;;;;;;;;;5048103;28;19959;-67
2021/05/23 04:41:59;;;;;;;;;;;;;;;;;;5047977;28;19925;-67
2021/05/23 04:44:26;;;;;;;;;;;;;;;;;;5046365;28;19924;-67
2021/05/23 04:46:52;;;;;;;;;;;;;;;;;;5045487;28;20007;-67
2021/05/23 04:49:19;;;;;;;;;;;;;;;;;;5048166;28;19932;-65
2021/05/23 04:51:45;;;;;;;;;;;;;;;;;;5049020;28;19978;-66
2021/05/23 04:54:11;;;;;;;;;;;;;;;;;;5048229;28;19932;-68
2021/05/23 04:56:38;;;;;;;;;;;;;;;;;;5047619;28;19978;-67
2021/05/23 04:59:04;;;;;;;;;;;;;;;;;;5043677;28;19955;-68
2021/05/23 05:01:31;;;;;;;;;;;;;;;;;;5046852;28;19943;-67
2021/05/23 05:03:57;;;;;;;;;;;;;;;;;;5048455;28;19924;-68
2021/05/23 05:06:24;;;;;;;;;;;;;;;;;;5050483;28;19978;-67
2021/05/23 05:08:50;;;;;;;;;;;;;;;;;;5050823;28;19935;-68
2021/05/23 05:11:17;;;;;;;;;;;;;;;;;;5050595;28;19925;-67
2021/05/23 05:13:43;;;;;;;;;;;;;;;;;;5051455;28;19936;-66
2021/05/23 05:16:10;;;;;;;;;;;;;;;;;;5050342;28;19929;-66
2021/05/23 05:18:36;;;;;;;;;;;;;;;;;;5049647;28;19978;-68
2021/05/23 05:21:02;;;;;;;;;;;;;;;;;;5050863;28;19925;-66
2021/05/23 05:23:29;;;;;;;;;;;;;;;;;;5051529;28;19931;-67
2021/05/23 05:25:55;;;;;;;;;;;;;;;;;;5051108;28;19925;-67
2021/05/23 05:28:22;;;;;;;;;;;;;;;;;;5048886;28;19925;-68
2021/05/23 05:30:48;;;;;;;;;;;;;;;;;;5051746;28;19925;-67
2021/05/23 05:33:15;;;;;;;;;;;;;;;;;;5049240;28;20388;-67
2021/05/23 05:35:41;;;;;;;;;;;;;;;;;;5045743;28;20384;-67
2021/05/23 05:38:08;;;;;;;;;;;;;;;;;;5048569;28;19929;-68
2021/05/23 05:40:34;;;;;;;;;;;;;;;;;;5048831;28;19925;-66
2021/05/23 05:43:00;;;;;;;;;;;;;;;;;;5049366;28;19935;-66
2021/05/23 05:45:27;;;;;;;;;;;;;;;;;;5051344;28;19944;-69
2021/05/23 05:47:54;;;;;;;;;;;;;;;;;;5051347;28;20324;-67
2021/05/23 05:50:20;;;;;;;;;;;;;;;;;;5050166;28;19964;-68
2021/05/23 05:52:46;;;;;;;;;;;;;;;;;;5049915;28;20273;-66
2021/05/23 05:55:14;;;;;;;;;;;;;;;;;;5050960;28;19925;-66
2021/05/23 05:57:40;;;;;;;;;;;;;;;;;;5047574;28;19996;-66
2021/05/23 06:00:06;;;;;;;;;;;;;;;;;;5049311;28;20297;-66
2021/05/23 06:02:33;;;;;;;;;;;;;;;;;;5050184;28;20031;-66
2021/05/23 06:04:59;;;;;;;;;;;;;;;;;;5049062;28;20291;-67
2021/05/23 06:07:26;;;;;;;;;;;;;;;;;;5049991;28;19935;-69
2021/05/23 06:09:52;;;;;;;;;;;;;;;;;;5050365;28;20337;-66
2021/05/23 06:12:19;;;;;;;;;;;;;;;;;;5050948;28;20273;-67
2021/05/23 06:14:45;;;;;;;;;;;;;;;;;;5051303;28;19939;-67
2021/05/23 06:17:12;;;;;;;;;;;;;;;;;;5050035;28;19995;-68
2021/05/23 06:19:38;;;;;;;;;;;;;;;;;;5050981;28;20319;-68
2021/05/23 06:22:05;;;;;;;;;;;;;;;;;;5049640;28;19933;-68
2021/05/23 06:24:31;;;;;;;;;;;;;;;;;;5048105;28;19951;-68
2021/05/23 06:26:57;;;;;;;;;;;;;;;;;;5050546;28;19935;-68
2021/05/23 06:29:24;;;;;;;;;;;;;;;;;;5049198;28;20095;-68
2021/05/23 06:31:50;;;;;;;;;;;;;;;;;;5048503;28;19929;-68
2021/05/23 06:34:17;;;;;;;;;;;;;;;;;;5049906;28;20424;-68
2021/05/23 06:36:43;;;;;;;;;;;;;;;;;;5050215;28;19933;-67
2021/05/23 06:39:10;;;;;;;;;;;;;;;;;;5050217;28;19935;-67
2021/05/23 06:41:36;;;;;;;;;;;;;;;;;;5047234;28;19931;-67
2021/05/23 06:44:03;;;;;;;;;;;;;;;;;;5044114;28;19925;-67
2021/05/23 06:46:29;;;;;;;;;;;;;;;;;;5050019;28;19925;-68
2021/05/23 06:48:56;;;;;;;;;;;;;;;;;;5049817;28;19931;-66
2021/05/23 06:51:22;;;;;;;;;;;;;;;;;;5044726;28;19929;-67
2021/05/23 06:53:48;;;;;;;;;;;;;;;;;;5045709;28;19932;-67
2021/05/23 06:56:15;;;;;;;;;;;;;;;;;;5044243;28;19944;-68
2021/05/23 06:58:41;;;;;;;;;;;;;;;;;;5045316;28;19925;-68
2021/05/23 07:01:08;;;;;;;;;;;;;;;;;;5046992;28;19936;-67
2021/05/23 07:03:34;;;;;;;;;;;;;;;;;;5044793;28;19925;-68
2021/05/23 07:06:01;;;;;;;;;;;;;;;;;;5044414;28;19925;-67
2021/05/23 07:08:27;;;;;;;;;;;;;;;;;;5045072;28;19947;-69
2021/05/23 07:10:54;;;;;;;;;;;;;;;;;;5046411;28;19925;-67
2021/05/23 07:13:20;;;;;;;;;;;;;;;;;;5047420;28;19932;-66
2021/05/23 07:15:47;;;;;;;;;;;;;;;;;;5048073;28;19932;-67
2021/05/23 07:18:13;;;;;;;;;;;;;;;;;;5050111;28;19928;-66
2021/05/23 07:20:40;;;;;;;;;;;;;;;;;;5042691;28;19933;-69
2021/05/23 07:23:07;;;;;;;;;;;;;;;;;;5043618;28;20445;-68
2021/05/23 07:25:34;;;;;;;;;;;;;;;;;;5045956;28;19928;-67
2021/05/23 07:28:00;;;;;;;;;;;;;;;;;;5041996;28;19928;-69
2021/05/23 07:30:26;;;;;;;;;;;;;;;;;;5049250;28;20402;-69
2021/05/23 07:32:53;;;;;;;;;;;;;;;;;;5045684;28;19931;-68
2021/05/23 07:35:19;;;;;;;;;;;;;;;;;;5046791;28;19925;-69
2021/05/23 07:37:46;;;;;;;;;;;;;;;;;;5048396;28;20418;-68
2021/05/23 07:40:12;;;;;;;;;;;;;;;;;;5047063;28;19979;-68
2021/05/23 07:42:39;;;;;;;;;;;;;;;;;;5044246;28;20647;-68
2021/05/23 07:45:05;;;;;;;;;;;;;;;;;;5049895;28;20028;-67
2021/05/23 07:47:32;;;;;;;;;;;;;;;;;;5051400;28;20459;-71
2021/05/23 07:49:58;;;;;;;;;;;;;;;;;;5048463;28;19929;-69
2021/05/23 07:52:25;;;;;;;;;;;;;;;;;;5046647;28;19929;-68
2021/05/23 07:54:51;;;;;;;;;;;;;;;;;;5047485;28;19925;-67
2021/05/23 07:57:18;;;;;;;;;;;;;;;;;;5045552;28;19928;-69
2021/05/23 07:59:44;;;;;;;;;;;;;;;;;;5045265;28;19932;-69
2021/05/23 08:02:11;;;;;;;;;;;;;;;;;;5045755;28;19939;-68
2021/05/23 08:04:37;;;;;;;;;;;;;;;;;;5046014;28;19925;-69
2021/05/23 08:07:04;;;;;;;;;;;;;;;;;;5047549;28;20031;-70
2021/05/23 08:09:30;;;;;;;;;;;;;;;;;;5042577;28;19929;-68
2021/05/23 08:11:57;;;;;;;;;;;;;;;;;;5046411;28;19933;-68
2021/05/23 08:14:23;;;;;;;;;;;;;;;;;;5046592;28;20004;-66
2021/05/23 08:16:50;;;;;;;;;;;;;;;;;;5044882;28;19929;-67
2021/05/23 08:19:16;;;;;;;;;;;;;;;;;;5044989;28;19975;-67
2021/05/23 08:21:43;;;;;;;;;;;;;;;;;;5047635;28;20028;-68
2021/05/23 08:24:09;;;;;;;;;;;;;;;;;;5044376;28;19931;-67
2021/05/23 08:26:36;;;;;;;;;;;;;;;;;;5047730;28;19924;-67
2021/05/23 08:29:02;;;;;;;;;;;;;;;;;;5041879;28;19925;-68
2021/05/23 08:31:29;;;;;;;;;;;;;;;;;;5042733;28;19933;-67
2021/05/23 08:33:55;;;;;;;;;;;;;;;;;;5042901;28;19929;-68
2021/05/23 08:36:22;;;;;;;;;;;;;;;;;;5046779;28;20028;-68
2021/05/23 08:38:48;;;;;;;;;;;;;;;;;;5048520;28;20380;-68
2021/05/23 08:41:15;;;;;;;;;;;;;;;;;;5047918;28;20027;-68
2021/05/23 08:43:41;;;;;;;;;;;;;;;;;;5046784;28;19931;-68
2021/05/23 08:46:08;;;;;;;;;;;;;;;;;;5049247;28;19956;-69
2021/05/23 08:48:34;;;;;;;;;;;;;;;;;;5049050;28;19935;-68
2021/05/23 08:51:01;;;;;;;;;;;;;;;;;;5045597;28;19929;-68
2021/05/23 08:53:27;;;;;;;;;;;;;;;;;;5050166;28;19925;-67
2021/05/23 08:55:54;;;;;;;;;;;;;;;;;;5049034;28;19933;-68
2021/05/23 08:58:20;;;;;;;;;;;;;;;;;;5047628;28;20023;-68
2021/05/23 09:00:47;;;;;;;;;;;;;;;;;;5046861;28;20008;-68
2021/05/23 09:03:13;;;;;;;;;;;;;;;;;;5049208;28;19928;-67
2021/05/23 09:05:41;;;;;;;;;;;;;;;;;;5050556;28;19928;-68
2021/05/23 09:08:08;;;;;;;;;;;;;;;;;;5044989;28;19925;-68
2021/05/23 09:10:34;;;;;;;;;;;;;;;;;;5050675;28;19924;-67
2021/05/23 09:13:01;;;;;;;;;;;;;;;;;;5050189;28;20102;-67
2021/05/23 09:15:27;;;;;;;;;;;;;;;;;;5052052;28;19979;-68
2021/05/23 09:17:54;;;;;;;;;;;;;;;;;;5046828;28;19932;-66
2021/05/23 09:20:20;;;;;;;;;;;;;;;;;;5048252;28;20385;-67
2021/05/23 09:22:52;;;;;;;;;;;;;;;;;;5050104;28;19924;-67
2021/05/23 09:25:19;;;;;;;;;;;;;;;;;;5050398;28;19925;-67
2021/05/23 09:27:45;;;;;;;;;;;;;;;;;;5051639;28;19932;-67
2021/05/23 09:30:14;;;;;;;;;;;;;;;;;;5051874;28;20031;-69
2021/05/23 09:32:41;;;;;;;;;;;;;;;;;;5063517;22;19929;-70
2021/05/23 09:35:08;;;;;;;;;;;;;;;;;;5030412;28;19933;-70
2021/05/23 09:37:34;;;;;;;;;;;;;;;;;;5032973;28;20388;-69
2021/05/23 09:40:01;;;;;;;;;;;;;;;;;;5030985;28;20067;-69
2021/05/23 09:42:27;;;;;;;;;;;;;;;;;;5028551;28;19925;-69
2021/05/23 09:44:54;;;;;;;;;;;;;;;;;;5008829;28;19949;-68
2021/05/23 09:47:20;;;;;;;;;;;;;;;;;;5020466;28;20036;-69
2021/05/23 09:49:47;;;;;;;;;;;;;;;;;;5030059;28;19952;-68
2021/05/23 09:52:13;;;;;;;;;;;;;;;;;;5007180;28;19964;-69
2021/05/23 09:54:40;;;;;;;;;;;;;;;;;;5006675;28;20024;-70
2021/05/23 09:57:06;;;;;;;;;;;;;;;;;;5008536;28;19934;-70
2021/05/23 09:59:33;;;;;;;;;;;;;;;;;;5006593;28;19979;-70
2021/05/23 10:02:02;;;;;;;;;;;;;;;;;;5009397;28;20009;-70
2021/05/23 10:04:28;;;;;;;;;;;;;;;;;;5006954;28;19996;-70
2021/05/23 10:06:55;;;;;;;;;;;;;;;;;;5008025;28;19932;-70
2021/05/23 10:09:21;;;;;;;;;;;;;;;;;;5005954;28;20124;-70
2021/05/23 10:11:49;;;;;;;;;;;;;;;;;;5006848;28;19929;-69
2021/05/23 10:14:15;;;;;;;;;;;;;;;;;;5010186;28;19933;-69
2021/05/23 10:16:42;;;;;;;;;;;;;;;;;;5007181;28;19930;-69
2021/05/23 10:19:08;;;;;;;;;;;;;;;;;;5005497;28;19952;-69
2021/05/23 10:21:35;;;;;;;;;;;;;;;;;;5009133;28;19977;-71
2021/05/23 10:24:03;;;;;;;;;;;;;;;;;;5007643;28;19940;-70
2021/05/23 10:26:29;;;;;;;;;;;;;;;;;;5008860;28;19980;-69
2021/05/23 10:28:56;;;;;;;;;;;;;;;;;;5007176;28;19926;-71
2021/05/23 10:31:22;;;;;;;;;;;;;;;;;;5007309;28;20012;-70
2021/05/23 10:33:49;;;;;;;;;;;;;;;;;;5025791;28;19993;-69
2021/05/23 10:36:15;;;;;;;;;;;;;;;;;;5010692;28;19973;-69
2021/05/23 10:38:42;;;;;;;;;;;;;;;;;;5006876;28;19930;-69
2021/05/23 10:41:08;;;;;;;;;;;;;;;;;;5008621;28;20336;-67
2021/05/23 10:43:36;;;;;;;;;;;;;;;;;;5004292;28;20390;-68
2021/05/23 10:46:02;;;;;;;;;;;;;;;;;;5007551;28;20033;-69
2021/05/23 10:48:29;;;;;;;;;;;;;;;;;;5005777;28;20020;-69
2021/05/23 10:50:55;;;;;;;;;;;;;;;;;;5007985;28;19984;-68
2021/05/23 10:53:24;;;;;;;;;;;;;;;;;;5008675;28;19925;-69
2021/05/23 10:55:50;;;;;;;;;;;;;;;;;;5006877;28;19933;-70
2021/05/23 10:58:17;;;;;;;;;;;;;;;;;;5007312;28;19930;-68
2021/05/23 11:00:43;;;;;;;;;;;;;;;;;;5007074;28;19965;-68
2021/05/23 11:03:10;;;;;;;;;;;;;;;;;;5007494;28;19933;-71
2021/05/23 11:05:38;;;;;;;;;;;;;;;;;;5007148;28;19965;-68
2021/05/23 11:08:05;;;;;;;;;;;;;;;;;;5009815;28;19944;-70
2021/05/23 11:10:32;;;;;;;;;;;;;;;;;;5006188;28;19934;-68
2021/05/23 11:12:58;;;;;;;;;;;;;;;;;;5005972;28;19948;-69
2021/05/23 11:15:25;;;;;;;;;;;;;;;;;;5006738;28;19929;-67
2021/05/23 11:17:51;;;;;;;;;;;;;;;;;;5017964;28;19957;-69
2021/05/23 11:20:18;;;;;;;;;;;;;;;;;;5023421;28;19925;-68
2021/05/23 11:22:46;;;;;;;;;;;;;;;;;;5005474;28;20020;-67
2021/05/23 11:25:13;;;;;;;;;;;;;;;;;;5005565;28;20435;-68
2021/05/23 11:27:39;;;;;;;;;;;;;;;;;;5006651;28;20024;-67
2021/05/23 11:30:06;;;;;;;;;;;;;;;;;;5005240;28;19925;-69
2021/05/23 11:32:32;;;;;;;;;;;;;;;;;;5003325;28;19926;-68
2021/05/23 11:34:59;;;;;;;;;;;;;;;;;;5007036;28;20020;-68
2021/05/23 11:37:25;;;;;;;;;;;;;;;;;;5007198;28;20008;-68
2021/05/23 11:39:52;;;;;;;;;;;;;;;;;;5007900;28;20009;-67
2021/05/23 11:42:18;;;;;;;;;;;;;;;;;;5006388;28;19929;-68
2021/05/23 11:44:47;;;;;;;;;;;;;;;;;;5010348;28;20028;-67
2021/05/23 11:47:14;;;;;;;;;;;;;;;;;;5004484;28;20035;-69
2021/05/23 11:49:44;;;;;;;;;;;;;;;;;;5007692;28;19925;-68
2021/05/23 11:52:11;;;;;;;;;;;;;;;;;;5005965;28;20403;-67
2021/05/23 11:54:40;;;;;;;;;;;;;;;;;;5007549;28;19925;-69
2021/05/23 11:57:06;;;;;;;;;;;;;;;;;;5008235;28;19932;-69
2021/05/23 11:59:33;;;;;;;;;;;;;;;;;;5006418;28;20382;-69
2021/05/23 12:02:00;;;;;;;;;;;;;;;;;;5010314;28;20305;-68
2021/05/23 12:04:26;;;;;;;;;;;;;;;;;;5022661;28;19934;-70
2021/05/23 12:06:53;;;;;;;;;;;;;;;;;;5018295;28;19988;-69
2021/05/23 12:09:20;;;;;;;;;;;;;;;;;;5004232;28;19934;-70
2021/05/23 12:11:48;;;;;;;;;;;;;;;;;;5008416;28;19925;-66
2021/05/23 12:14:14;;;;;;;;;;;;;;;;;;5005774;28;19936;-66
2021/05/23 12:16:41;;;;;;;;;;;;;;;;;;5006112;28;20382;-66
2021/05/23 12:19:07;;;;;;;;;;;;;;;;;;5010673;28;19929;-67
2021/05/23 12:21:35;;;;;;;;;;;;;;;;;;5011565;28;19988;-67
2021/05/23 12:24:02;;;;;;;;;;;;;;;;;;5008338;28;19926;-66
2021/05/23 12:26:29;;;;;;;;;;;;;;;;;;5012206;28;20012;-67
2021/05/23 12:28:56;;;;;;;;;;;;;;;;;;5013969;28;19933;-67
2021/05/23 12:31:22;;;;;;;;;;;;;;;;;;5011335;28;19933;-66
2021/05/23 12:33:49;;;;;;;;;;;;;;;;;;5013440;28;20407;-67
2021/05/23 12:36:15;;;;;;;;;;;;;;;;;;5013532;28;19936;-66
2021/05/23 12:38:42;;;;;;;;;;;;;;;;;;5013152;28;19951;-65
2021/05/23 12:41:11;;;;;;;;;;;;;;;;;;5013795;28;19925;-65
2021/05/23 12:43:38;;;;;;;;;;;;;;;;;;5013042;28;20044;-66
2021/05/23 12:46:04;;;;;;;;;;;;;;;;;;5013432;28;20020;-66
2021/05/23 12:48:31;;;;;;;;;;;;;;;;;;5014052;28;20028;-65
2021/05/23 12:50:57;;;;;;;;;;;;;;;;;;5018736;28;20036;-66
2021/05/23 12:53:24;;;;;;;;;;;;;;;;;;5012738;28;19969;-66
2021/05/23 12:55:50;;;;;;;;;;;;;;;;;;5011564;28;19944;-66
2021/05/23 12:58:17;;;;;;;;;;;;;;;;;;5011225;28;19926;-66
2021/05/23 13:00:43;;;;;;;;;;;;;;;;;;5011538;28;20390;-63
2021/05/23 13:03:10;;;;;;;;;;;;;;;;;;5012160;28;19944;-66
2021/05/23 13:05:37;;;;;;;;;;;;;;;;;;5012717;28;20374;-66
2021/05/23 13:08:03;;;;;;;;;;;;;;;;;;5013042;28;19929;-67
2021/05/23 13:10:30;;;;;;;;;;;;;;;;;;5012230;28;20000;-66
2021/05/23 13:12:57;;;;;;;;;;;;;;;;;;5011486;28;20432;-66
2021/05/23 13:15:23;;;;;;;;;;;;;;;;;;5012673;28;19933;-66
2021/05/23 13:17:51;;;;;;;;;;;;;;;;;;5013205;28;20653;-67
2021/05/23 13:20:19;;;;;;;;;;;;;;;;;;5009546;28;19953;-66
2021/05/23 13:22:46;;;;;;;;;;;;;;;;;;5011329;28;19926;-66
2021/05/23 13:25:13;;;;;;;;;;;;;;;;;;5011835;28;19956;-65
2021/05/23 13:27:40;;;;;;;;;;;;;;;;;;5012222;28;19929;-64
2021/05/23 13:30:06;;;;;;;;;;;;;;;;;;5013808;28;19961;-66
2021/05/23 13:32:33;;;;;;;;;;;;;;;;;;5012137;28;19988;-65
2021/05/23 13:35:00;;;;;;;;;;;;;;;;;;5013801;28;19930;-66
2021/05/23 13:37:27;;;;;;;;;;;;;;;;;;5017041;28;20083;-67
2021/05/23 13:39:53;;;;;;;;;;;;;;;;;;5009996;28;19933;-65
2021/05/23 13:42:20;;;;;;;;;;;;;;;;;;5012606;28;20020;-66
2021/05/23 13:44:46;;;;;;;;;;;;;;;;;;5012013;28;19926;-66
2021/05/23 13:47:14;;;;;;;;;;;;;;;;;;5011908;28;19929;-66
2021/05/23 13:49:41;;;;;;;;;;;;;;;;;;5007374;28;19925;-68
2021/05/23 13:52:08;;;;;;;;;;;;;;;;;;5006023;28;19926;-68
2021/05/23 13:54:34;;;;;;;;;;;;;;;;;;5012588;28;19981;-70
2021/05/23 13:57:01;;;;;;;;;;;;;;;;;;5007222;28;19929;-70
2021/05/23 13:59:28;;;;;;;;;;;;;;;;;;5009017;28;20024;-70
2021/05/23 14:01:55;;;;;;;;;;;;;;;;;;5007375;28;19926;-70
2021/05/23 14:04:24;;;;;;;;;;;;;;;;;;5009738;28;19968;-69
2021/05/23 14:06:51;;;;;;;;;;;;;;;;;;5008678;28;19926;-70
2021/05/23 14:09:18;;;;;;;;;;;;;;;;;;5009722;28;20306;-68
2021/05/23 14:11:45;;;;;;;;;;;;;;;;;;5008419;28;19948;-68
2021/05/23 14:14:11;;;;;;;;;;;;;;;;;;5006199;28;19955;-70
2021/05/23 14:16:38;;;;;;;;;;;;;;;;;;5009902;28;19965;-69
2021/05/23 14:19:04;;;;;;;;;;;;;;;;;;5008449;28;19965;-70
2021/05/23 14:21:31;;;;;;;;;;;;;;;;;;5010621;28;19971;-69
2021/05/23 14:23:57;;;;;;;;;;;;;;;;;;5007137;28;20325;-70
2021/05/23 14:26:24;;;;;;;;;;;;;;;;;;5004109;28;20631;-69
2021/05/23 14:28:51;;;;;;;;;;;;;;;;;;5006367;28;19930;-68
2021/05/23 14:31:21;;;;;;;;;;;;;;;;;;5005388;28;19971;-67
2021/05/23 14:33:47;;;;;;;;;;;;;;;;;;5008434;28;19959;-68
2021/05/23 14:36:14;;;;;;;;;;;;;;;;;;5006076;28;19972;-69
2021/05/23 14:38:40;;;;;;;;;;;;;;;;;;5006174;28;19929;-67
2021/05/23 14:41:07;;;;;;;;;;;;;;;;;;5003938;28;19926;-68
2021/05/23 14:43:35;;;;;;;;;;;;;;;;;;5004917;28;20405;-70
2021/05/23 14:46:01;;;;;;;;;;;;;;;;;;5005101;28;20398;-70
2021/05/23 14:48:28;;;;;;;;;;;;;;;;;;5006157;28;19926;-69
2021/05/23 14:50:56;;;;;;;;;;;;;;;;;;5006351;28;20393;-68
2021/05/23 14:53:22;;;;;;;;;;;;;;;;;;5005224;28;19937;-70
2021/05/23 14:55:50;;;;;;;;;;;;;;;;;;5006871;28;19944;-69
2021/05/23 14:58:20;;;;;;;;;;;;;;;;;;5008423;28;20015;-69
2021/05/23 15:00:47;;;;;;;;;;;;;;;;;;5006512;28;19926;-68
2021/05/23 15:03:13;;;;;;;;;;;;;;;;;;5005568;28;19929;-69
2021/05/23 15:05:40;;;;;;;;;;;;;;;;;;5006222;28;20020;-70
2021/05/23 15:08:06;;;;;;;;;;;;;;;;;;5008694;28;20020;-69
2021/05/23 15:10:33;;;;;;;;;;;;;;;;;;5003004;28;19952;-71
2021/05/23 15:12:59;;;;;;;;;;;;;;;;;;5003800;28;19975;-66
2021/05/23 15:15:28;;;;;;;;;;;;;;;;;;5002506;28;20374;-66
2021/05/23 15:17:55;;;;;;;;;;;;;;;;;;5002719;28;19937;-66
2021/05/23 15:20:21;;;;;;;;;;;;;;;;;;5003830;28;19983;-68
2021/05/23 15:22:48;;;;;;;;;;;;;;;;;;5001923;28;19926;-69
2021/05/23 15:25:14;;;;;;;;;;;;;;;;;;5007658;28;19975;-70
2021/05/23 15:30:26;;;;;;;;;;;;;;;;;;5005121;28;19920;-70
2021/05/23 15:32:52;;;;;;;;;;;;;;;;;;5004225;28;19961;-69
2021/05/23 15:35:19;;;;;;;;;;;;;;;;;;5007175;28;20020;-71
2021/05/23 15:37:45;;;;;;;;;;;;;;;;;;5004598;28;19932;-71
2021/05/23 15:40:12;;;;;;;;;;;;;;;;;;5005646;28;20396;-70
2021/05/23 15:42:38;;;;;;;;;;;;;;;;;;5003368;28;19925;-71
2021/05/23 15:45:05;;;;;;;;;;;;;;;;;;5004398;28;20305;-70
2021/05/23 15:47:31;;;;;;;;;;;;;;;;;;5003789;28;19925;-72
2021/05/23 15:49:58;;;;;;;;;;;;;;;;;;5004074;28;19930;-71
2021/05/23 15:52:24;;;;;;;;;;;;;;;;;;5004441;28;19944;-73
2021/05/23 15:54:55;;;;;;;;;;;;;;;;;;5005250;28;20360;-72
2021/05/23 15:57:22;;;;;;;;;;;;;;;;;;5005170;28;20309;-70
2021/05/23 15:59:50;;;;;;;;;;;;;;;;;;5003627;28;20396;-70
2021/05/23 16:02:16;;;;;;;;;;;;;;;;;;5004183;28;19929;-71
2021/05/23 16:04:43;;;;;;;;;;;;;;;;;;5002409;28;19956;-71
2021/05/23 16:07:09;;;;;;;;;;;;;;;;;;5003189;28;19929;-71
2021/05/23 16:09:36;;;;;;;;;;;;;;;;;;5002900;28;19930;-71
2021/05/23 16:12:02;;;;;;;;;;;;;;;;;;5001704;28;19933;-71
2021/05/23 16:14:29;;;;;;;;;;;;;;;;;;5005125;28;19926;-71
2021/05/23 16:16:55;;;;;;;;;;;;;;;;;;5004166;28;19950;-71
2021/05/23 16:19:22;;;;;;;;;;;;;;;;;;5004070;28;19935;-71
2021/05/23 16:21:50;;;;;;;;;;;;;;;;;;5002163;28;19926;-72
2021/05/23 16:24:16;;;;;;;;;;;;;;;;;;5004794;28;19925;-72
2021/05/23 16:26:43;;;;;;;;;;;;;;;;;;5002726;28;20020;-71
2021/05/23 16:29:09;;;;;;;;;;;;;;;;;;5002605;28;19930;-71
2021/05/23 16:31:36;;;;;;;;;;;;;;;;;;5002061;28;20024;-71
2021/05/23 16:34:02;;;;;;;;;;;;;;;;;;5002821;28;19925;-72
2021/05/23 16:36:29;;;;;;;;;;;;;;;;;;5003794;28;19972;-70
2021/05/23 16:38:56;;;;;;;;;;;;;;;;;;5003548;28;19975;-67
2021/05/23 16:41:22;;;;;;;;;;;;;;;;;;5003043;28;19973;-72
2021/05/23 16:43:50;;;;;;;;;;;;;;;;;;5005401;28;19925;-70